createdAt,value
2022-12-05T00:02:22.354Z,86.17
2022-12-05T00:07:26.128Z,76.60
2022-12-05T00:12:28.221Z,89.60
2022-12-05T00:17:32.207Z,83.77
2022-12-05T00:22:36.778Z,101.83
2022-12-05T00:27:39.381Z,86.60
2022-12-05T00:32:41.395Z,97.20
2022-12-05T00:37:44.956Z,95.03
2022-12-05T00:42:52.125Z,87.10
2022-12-05T00:47:54.236Z,113.87
2022-12-05T00:52:57.648Z,91.67
2022-12-05T00:57:59.910Z,90.27
2022-12-05T01:03:01.684Z,101.73
2022-12-05T01:08:05.542Z,83.73
2022-12-05T01:13:07.308Z,76.43
2022-12-05T01:18:09.488Z,94.30
2022-12-05T01:23:13.270Z,101.63
2022-12-05T01:28:16.671Z,82.73
2022-12-05T01:33:18.634Z,88.77
2022-12-05T01:38:21.737Z,93.53
2022-12-05T01:43:23.687Z,96.90
2022-12-05T01:48:30.280Z,73.77
2022-12-05T01:53:34.479Z,97.27
2022-12-05T01:58:38.954Z,101.23
2022-12-05T02:03:42.406Z,92.63
2022-12-05T02:08:47.318Z,83.80
2022-12-05T02:14:14.612Z,99.10
2022-12-05T02:19:47.779Z,103.20
2022-12-05T02:25:22.524Z,100.60
2022-12-05T02:30:27.391Z,85.77
2022-12-05T02:35:39.570Z,92.53
2022-12-05T02:40:49.870Z,95.33
2022-12-05T02:45:57.272Z,82.13
2022-12-05T02:51:02.071Z,80.27
2022-12-05T02:56:06.637Z,89.77
2022-12-05T03:01:10.957Z,73.23
2022-12-05T03:06:15.919Z,71.10
2022-12-05T03:11:18.299Z,75.13
2022-12-05T03:16:27.922Z,68.83
2022-12-05T03:21:34.476Z,71.63
2022-12-05T03:26:50.714Z,64.53
2022-12-05T03:32:03.518Z,71.87
2022-12-05T03:37:10.978Z,61.93
2022-12-05T03:42:14.086Z,67.03
2022-12-05T03:47:23.818Z,74.13
2022-12-05T03:52:38.012Z,71.17
2022-12-05T03:57:58.322Z,64.03
2022-12-05T04:03:05.602Z,58.47
2022-12-05T04:08:11.840Z,51.77
2022-12-05T04:13:18.655Z,69.50
2022-12-05T04:18:25.888Z,60.47
2022-12-05T04:23:28.327Z,65.60
2022-12-05T04:28:34.833Z,54.27
2022-12-05T04:33:43.629Z,64.10
2022-12-05T04:38:51.258Z,54.90
2022-12-05T04:43:56.156Z,53.80
2022-12-05T04:49:02.624Z,60.27
2022-12-05T04:54:13.361Z,57.30
2022-12-05T04:59:15.105Z,50.63
2022-12-05T05:04:25.753Z,53.77
2022-12-05T05:09:27.823Z,55.77
2022-12-05T05:14:29.595Z,49.53
2022-12-05T05:19:32.851Z,43.67
2022-12-05T05:24:35.139Z,43.47
2022-12-05T05:29:36.867Z,51.33
2022-12-05T05:34:40.836Z,40.33
2022-12-05T05:39:42.606Z,48.00
2022-12-05T05:44:44.781Z,36.63
2022-12-05T05:49:47.836Z,52.43
2022-12-05T05:54:49.929Z,35.40
2022-12-05T05:59:52.655Z,42.77
2022-12-05T06:04:55.873Z,38.10
2022-12-05T06:09:58.440Z,33.57
2022-12-05T06:15:00.834Z,34.87
2022-12-05T06:20:04.447Z,38.87
2022-12-05T06:25:07.758Z,34.13
2022-12-05T06:30:10.423Z,40.40
2022-12-05T06:35:14.283Z,40.40
2022-12-05T06:40:16.296Z,42.50
2022-12-05T06:45:18.244Z,37.20
2022-12-05T06:50:21.732Z,28.90
2022-12-05T06:55:23.601Z,30.47
2022-12-05T07:00:26.153Z,29.73
2022-12-05T07:05:30.334Z,26.70
2022-12-05T07:10:32.545Z,32.00
2022-12-05T07:15:34.713Z,30.17
2022-12-05T07:21:10.122Z,28.97
2022-12-05T07:26:05.240Z,36.10
2022-12-05T07:31:09.986Z,32.37
2022-12-05T07:36:15.380Z,26.63
2022-12-05T07:41:22.450Z,25.30
2022-12-05T07:46:25.320Z,25.30
2022-12-05T07:51:29.003Z,32.63
2022-12-05T07:56:31.513Z,31.10
2022-12-05T08:01:33.708Z,21.37
2022-12-05T08:06:37.281Z,24.63
2022-12-05T08:11:39.533Z,19.03
2022-12-05T08:16:41.719Z,21.00
2022-12-05T08:21:45.589Z,20.90
2022-12-05T08:26:47.358Z,20.97
2022-12-05T08:31:51.926Z,19.70
2022-12-05T08:36:55.767Z,26.23
2022-12-05T08:41:58.216Z,21.20
2022-12-05T08:47:00.323Z,20.83
2022-12-05T08:52:03.810Z,19.80
2022-12-05T08:57:05.806Z,27.67
2022-12-05T09:02:08.951Z,24.30
2022-12-05T09:07:12.702Z,24.47
2022-12-05T09:12:14.466Z,23.30
2022-12-05T09:17:16.750Z,23.80
2022-12-05T09:22:20.767Z,21.37
2022-12-05T09:27:23.005Z,23.30
2022-12-05T09:32:25.219Z,22.23
2022-12-05T09:37:39.242Z,23.57
2022-12-05T09:42:55.685Z,27.50
2022-12-05T09:48:01.220Z,31.53
2022-12-05T09:53:15.890Z,27.87
2022-12-05T09:58:27.056Z,24.70
2022-12-05T10:03:38.600Z,25.07
2022-12-05T10:08:55.892Z,28.30
2022-12-05T10:14:08.419Z,30.67
2022-12-05T10:19:15.566Z,30.67
2022-12-05T10:24:32.351Z,27.33
2022-12-05T10:29:39.716Z,28.70
2022-12-05T10:34:43.708Z,25.97
2022-12-05T10:39:48.745Z,27.63
2022-12-05T10:44:56.044Z,26.90
2022-12-05T10:50:03.549Z,24.10
2022-12-05T10:55:08.191Z,28.03
2022-12-05T11:00:14.220Z,26.73
2022-12-05T11:05:28.301Z,28.13
2022-12-05T11:10:35.228Z,35.53
2022-12-05T11:15:45.166Z,28.93
2022-12-05T11:20:47.423Z,32.27
2022-12-05T11:25:51.683Z,27.10
2022-12-05T11:30:58.203Z,32.77
2022-12-05T11:36:09.324Z,28.13
2022-12-05T11:41:38.211Z,28.03
2022-12-05T11:46:52.895Z,23.33
2022-12-05T11:52:09.213Z,25.20
2022-12-05T11:57:24.981Z,28.80
2022-12-05T12:02:41.610Z,27.13
2022-12-05T12:07:57.910Z,27.77
2022-12-05T12:13:16.438Z,30.07
2022-12-05T12:18:34.992Z,32.07
2022-12-05T12:23:49.635Z,27.90
2022-12-05T12:29:03.672Z,36.73
2022-12-05T12:34:25.984Z,31.10
2022-12-05T12:39:43.678Z,28.93
2022-12-05T12:45:02.205Z,32.60
2022-12-05T12:50:14.082Z,32.90
2022-12-05T12:55:22.215Z,29.30
2022-12-05T13:00:36.026Z,34.23
2022-12-05T13:05:42.733Z,33.53
2022-12-05T13:10:47.235Z,32.07
2022-12-05T13:15:53.724Z,30.80
2022-12-05T13:20:59.979Z,39.70
2022-12-05T13:26:08.808Z,38.20
2022-12-05T13:31:12.593Z,41.90
2022-12-05T13:36:19.020Z,39.70
2022-12-05T13:41:21.307Z,29.10
2022-12-05T13:46:29.487Z,35.47
2022-12-05T13:51:35.344Z,34.23
2022-12-05T13:56:52.317Z,35.63
2022-12-05T14:01:56.688Z,36.37
2022-12-05T14:06:58.966Z,39.43
2022-12-05T14:12:30.295Z,40.90
2022-12-05T14:17:43.194Z,40.40
2022-12-05T14:23:11.628Z,34.10
2022-12-05T14:28:27.322Z,49.63
2022-12-05T14:33:31.008Z,51.30
2022-12-05T14:38:37.169Z,33.87
2022-12-05T14:43:40.980Z,44.40
2022-12-05T14:48:47.786Z,47.30
2022-12-05T14:53:50.978Z,37.13
2022-12-05T14:58:58.960Z,44.87
2022-12-05T15:04:10.255Z,47.97
2022-12-05T15:09:38.958Z,44.47
2022-12-05T15:14:46.897Z,44.07
2022-12-05T15:19:56.354Z,41.00
2022-12-05T15:24:59.151Z,42.43
2022-12-05T15:30:01.262Z,49.80
2022-12-05T15:35:07.506Z,39.43
2022-12-05T15:40:12.970Z,47.13
2022-12-05T15:45:21.324Z,43.77
2022-12-05T15:50:34.046Z,42.87
2022-12-05T15:55:40.683Z,33.10
2022-12-05T16:00:48.144Z,33.27
2022-12-05T16:05:55.619Z,40.03
2022-12-05T16:10:57.807Z,36.20
2022-12-05T16:16:00.487Z,36.30
2022-12-05T16:21:37.404Z,33.63
2022-12-05T16:26:41.640Z,43.27
2022-12-05T16:31:44.619Z,42.07
2022-12-05T16:36:49.722Z,44.40
2022-12-05T16:41:52.420Z,49.33
2022-12-05T16:46:55.203Z,42.70
2022-12-05T16:52:03.636Z,43.43
2022-12-05T16:57:06.423Z,47.87
2022-12-05T17:02:13.454Z,47.03
2022-12-05T17:07:16.900Z,37.40
2022-12-05T17:12:23.024Z,48.80
2022-12-05T17:17:25.646Z,42.97
2022-12-05T17:22:29.447Z,37.07
2022-12-05T17:27:31.580Z,46.90
2022-12-05T17:32:34.306Z,49.57
2022-12-05T17:37:38.045Z,49.33
2022-12-05T17:42:40.218Z,55.93
2022-12-05T17:47:43.810Z,53.77
2022-12-05T17:52:48.079Z,45.90
2022-12-05T17:57:50.747Z,57.63
2022-12-05T18:02:53.153Z,71.53
2022-12-05T18:07:57.947Z,63.33
2022-12-05T18:13:00.411Z,58.83
2022-12-05T18:18:03.072Z,45.40
2022-12-05T18:23:07.279Z,52.93
2022-12-05T18:28:09.757Z,40.77
2022-12-05T18:33:11.956Z,46.27
2022-12-05T18:38:15.551Z,47.97
2022-12-05T18:43:17.763Z,37.60
2022-12-05T18:48:48.324Z,44.23
2022-12-05T18:53:43.963Z,42.30
2022-12-05T18:58:53.165Z,37.80
2022-12-05T19:03:56.671Z,35.63
2022-12-05T19:09:03.367Z,28.53
2022-12-05T19:14:05.685Z,28.60
2022-12-05T19:19:10.478Z,32.07
2022-12-05T19:24:17.226Z,28.23
2022-12-05T19:29:18.968Z,29.67
2022-12-05T19:34:20.734Z,27.00
2022-12-05T19:39:26.746Z,29.20
2022-12-05T19:44:28.971Z,25.17
2022-12-05T19:49:30.971Z,24.47
2022-12-05T19:54:34.532Z,24.07
2022-12-05T19:59:36.409Z,21.93
2022-12-05T20:04:38.681Z,20.17
2022-12-05T20:09:42.639Z,21.30
2022-12-05T20:14:44.756Z,20.23
2022-12-05T20:19:47.575Z,16.90
2022-12-05T20:24:51.070Z,15.17
2022-12-05T20:29:53.615Z,12.93
2022-12-05T20:34:55.447Z,17.73
2022-12-05T20:39:59.551Z,20.80
2022-12-05T20:45:01.765Z,17.90
2022-12-05T20:50:04.676Z,20.83
2022-12-05T20:55:09.595Z,19.37
2022-12-05T21:00:15.049Z,14.53
2022-12-05T21:05:18.587Z,20.83
2022-12-05T21:10:23.625Z,16.60
2022-12-05T21:15:26.586Z,13.00
2022-12-05T21:20:30.917Z,16.63
2022-12-05T21:25:36.575Z,14.53
2022-12-05T21:30:39.218Z,17.00
2022-12-05T21:35:40.896Z,14.67
2022-12-05T21:40:44.450Z,18.20
2022-12-05T21:45:53.031Z,17.43
2022-12-05T21:50:55.251Z,16.77
2022-12-05T21:56:02.658Z,14.53
2022-12-05T22:01:04.812Z,11.03
2022-12-05T22:06:08.522Z,14.47
2022-12-05T22:11:13.435Z,13.13
2022-12-05T22:16:16.153Z,14.43
2022-12-05T22:21:20.094Z,11.03
2022-12-05T22:26:24.913Z,10.67
2022-12-05T22:31:27.187Z,11.93
2022-12-05T22:36:28.896Z,15.10
2022-12-05T22:41:32.344Z,14.93
2022-12-05T22:46:34.169Z,17.53
2022-12-05T22:51:36.325Z,16.77
2022-12-05T22:56:39.767Z,13.87
2022-12-05T23:01:41.502Z,11.70
2022-12-05T23:06:43.550Z,11.20
2022-12-05T23:11:49.212Z,12.60
2022-12-05T23:16:51.343Z,12.30
2022-12-05T23:21:53.519Z,12.60
2022-12-05T23:26:56.945Z,15.07
2022-12-05T23:31:58.727Z,13.03
2022-12-05T23:37:00.446Z,13.07
2022-12-05T23:42:04.128Z,14.37
2022-12-05T23:47:05.908Z,17.00
2022-12-05T23:52:08.048Z,15.83
2022-12-05T23:57:16.132Z,11.33
